Time;durP1;ratioP1;P1;durP2;ratioP2;P2;SDS_P1;SDS_P2;PMS_P1;PMS_P2;Temp;Humidity;BMP_temperature;BMP_pressure;BME280_temperature;BME280_humidity;BME280_pressure;Samples;Min_cycle;Max_cycle;Signal;HPM_P1;HPM_P2
2023/08/03 00:02:05;;;;;;;9.32;4.32;;;;;;;;;;4978147;28;20031;-48
2023/08/03 00:04:31;;;;;;;10.35;4.40;;;;;;;;;;4996118;28;20031;-47
2023/08/03 00:06:56;;;;;;;12.05;4.72;;;;;;;;;;4998168;28;20034;-46
2023/08/03 00:09:23;;;;;;;6.20;4.05;;;;;;;;;;4994174;28;20164;-45
2023/08/03 00:11:48;;;;;;;9.68;4.60;;;;;;;;;;4996814;28;20125;-45
2023/08/03 00:14:13;;;;;;;9.50;4.75;;;;;;;;;;4997087;28;20069;-46
2023/08/03 00:16:39;;;;;;;7.85;4.53;;;;;;;;;;4997036;28;20026;-44
2023/08/03 00:19:04;;;;;;;9.23;4.90;;;;;;;;;;4997471;28;20038;-46
2023/08/03 00:21:30;;;;;;;14.88;5.82;;;;;;;;;;4996512;28;20033;-45
2023/08/03 00:23:55;;;;;;;13.55;4.80;;;;;;;;;;4996073;28;20108;-47
2023/08/03 00:26:20;;;;;;;11.50;4.70;;;;;;;;;;4998957;28;20065;-47
2023/08/03 00:28:46;;;;;;;11.02;4.78;;;;;;;;;;4997425;28;20038;-44
2023/08/03 00:31:11;;;;;;;10.57;4.35;;;;;;;;;;4979875;28;20058;-48
2023/08/03 00:33:36;;;;;;;15.98;4.32;;;;;;;;;;4976853;28;20047;-45
2023/08/03 00:36:02;;;;;;;12.43;4.95;;;;;;;;;;4983016;28;20076;-46
2023/08/03 00:38:27;;;;;;;15.88;4.43;;;;;;;;;;4995092;28;20120;-50
2023/08/03 00:40:53;;;;;;;10.88;4.72;;;;;;;;;;4997077;28;20031;-47
2023/08/03 00:43:19;;;;;;;12.68;4.28;;;;;;;;;;4995501;28;20054;-45
2023/08/03 00:45:44;;;;;;;11.48;4.00;;;;;;;;;;4996507;28;20022;-45
2023/08/03 00:48:10;;;;;;;8.27;3.78;;;;;;;;;;4996965;28;20034;-45
2023/08/03 00:50:36;;;;;;;17.63;5.32;;;;;;;;;;4996127;28;20049;-46
2023/08/03 00:53:02;;;;;;;12.45;3.92;;;;;;;;;;4997626;28;20038;-45
2023/08/03 00:55:27;;;;;;;9.77;3.90;;;;;;;;;;4996417;28;20369;-45
2023/08/03 00:57:53;;;;;;;20.08;4.03;;;;;;;;;;4996338;28;20193;-46
2023/08/03 01:00:18;;;;;;;6.43;4.00;;;;;;;;;;4997284;28;20038;-45
2023/08/03 01:02:44;;;;;;;7.68;3.72;;;;;;;;;;4996538;28;20042;-45
2023/08/03 01:05:09;;;;;;;11.98;3.85;;;;;;;;;;4996913;28;20495;-47
2023/08/03 01:07:34;;;;;;;9.02;3.90;;;;;;;;;;4997077;28;20044;-45
2023/08/03 01:10:01;;;;;;;12.15;3.60;;;;;;;;;;4992952;28;20061;-45
2023/08/03 01:12:27;;;;;;;12.45;3.97;;;;;;;;;;4994744;28;20370;-46
2023/08/03 01:14:52;;;;;;;9.05;3.70;;;;;;;;;;4996230;28;20117;-47
2023/08/03 01:17:18;;;;;;;12.05;3.60;;;;;;;;;;4997474;28;20069;-49
2023/08/03 01:19:44;;;;;;;7.28;3.60;;;;;;;;;;4995023;28;20104;-47
2023/08/03 01:22:12;;;;;;;8.32;3.60;;;;;;;;;;4995594;28;20503;-47
2023/08/03 01:24:38;;;;;;;10.85;3.60;;;;;;;;;;4994157;28;20113;-45
2023/08/03 01:27:04;;;;;;;6.35;3.20;;;;;;;;;;4992214;28;20127;-45
2023/08/03 01:29:29;;;;;;;8.32;3.47;;;;;;;;;;4994935;28;20022;-45
2023/08/03 01:31:56;;;;;;;7.28;3.70;;;;;;;;;;4997288;28;20041;-46
2023/08/03 01:34:26;;;;;;;7.18;3.60;;;;;;;;;;4996645;28;20038;-45
2023/08/03 01:36:53;;;;;;;8.23;3.90;;;;;;;;;;4996129;28;20093;-46
2023/08/03 01:39:20;;;;;;;9.93;3.47;;;;;;;;;;4996674;28;20098;-45
2023/08/03 01:41:46;;;;;;;9.55;3.33;;;;;;;;;;4997277;28;20490;-44
2023/08/03 01:44:31;;;;;;;6.00;3.28;;;;;;;;;;4994372;28;20050;-45
2023/08/03 01:46:59;;;;;;;7.60;3.45;;;;;;;;;;4997010;28;20030;-47
2023/08/03 01:49:27;;;;;;;6.25;3.60;;;;;;;;;;4996253;28;20034;-47
2023/08/03 01:51:53;;;;;;;4.57;3.08;;;;;;;;;;4997161;28;20064;-46
2023/08/03 01:54:18;;;;;;;9.27;3.40;;;;;;;;;;4991333;28;20077;-47
2023/08/03 01:56:44;;;;;;;7.07;3.00;;;;;;;;;;4996341;28;20057;-47
2023/08/03 01:59:10;;;;;;;4.22;3.13;;;;;;;;;;4996347;28;20117;-45
2023/08/03 02:01:36;;;;;;;7.93;3.50;;;;;;;;;;4996721;28;20113;-47
2023/08/03 02:04:02;;;;;;;6.00;3.25;;;;;;;;;;4993914;28;20095;-48
2023/08/03 02:06:27;;;;;;;8.93;3.22;;;;;;;;;;4995122;28;20030;-50
2023/08/03 02:08:52;;;;;;;5.35;2.97;;;;;;;;;;4982801;28;20042;-48
2023/08/03 02:11:18;;;;;;;8.75;2.95;;;;;;;;;;4974321;28;20026;-47
2023/08/03 02:13:43;;;;;;;10.48;3.92;;;;;;;;;;4989676;28;20047;-45
2023/08/03 02:16:10;;;;;;;6.13;3.03;;;;;;;;;;4989063;28;20034;-45
2023/08/03 02:18:39;;;;;;;6.75;3.20;;;;;;;;;;4981419;28;20480;-45
2023/08/03 02:21:05;;;;;;;6.53;3.17;;;;;;;;;;4988942;28;20030;-47
2023/08/03 02:23:32;;;;;;;6.78;3.15;;;;;;;;;;4983503;28;20035;-47
2023/08/03 02:25:57;;;;;;;4.95;2.78;;;;;;;;;;4991177;28;20030;-47
2023/08/03 02:28:23;;;;;;;5.72;2.80;;;;;;;;;;4991991;28;20054;-44
2023/08/03 02:30:48;;;;;;;6.50;3.25;;;;;;;;;;4987261;28;20022;-46
2023/08/03 02:33:13;;;;;;;5.13;2.80;;;;;;;;;;4993130;28;20054;-47
2023/08/03 02:35:39;;;;;;;7.15;2.92;;;;;;;;;;4989695;28;20051;-46
2023/08/03 02:38:08;;;;;;;5.65;2.38;;;;;;;;;;4993896;28;20038;-46
2023/08/03 02:40:33;;;;;;;7.30;3.30;;;;;;;;;;4990788;28;20046;-47
2023/08/03 02:42:59;;;;;;;6.35;2.83;;;;;;;;;;4998280;28;20045;-49
2023/08/03 02:45:24;;;;;;;4.45;2.53;;;;;;;;;;4998735;28;20303;-45
2023/08/03 02:47:50;;;;;;;3.10;2.08;;;;;;;;;;4981906;28;20042;-48
2023/08/03 02:50:15;;;;;;;4.70;2.33;;;;;;;;;;4990078;28;20029;-45
2023/08/03 02:52:41;;;;;;;5.68;2.40;;;;;;;;;;4995679;28;20126;-45
2023/08/03 02:55:06;;;;;;;6.80;2.72;;;;;;;;;;4993821;28;20113;-47
2023/08/03 02:57:32;;;;;;;4.30;2.20;;;;;;;;;;4982092;28;20035;-44
2023/08/03 02:59:57;;;;;;;5.32;2.28;;;;;;;;;;4995808;28;20030;-45
2023/08/03 03:02:23;;;;;;;7.53;2.10;;;;;;;;;;5007484;28;20034;-44
2023/08/03 03:04:49;;;;;;;4.32;2.28;;;;;;;;;;4999702;28;20032;-45
2023/08/03 03:07:15;;;;;;;8.85;2.80;;;;;;;;;;4996539;28;20034;-45
2023/08/03 03:09:41;;;;;;;7.80;2.53;;;;;;;;;;4988437;28;20076;-45
2023/08/03 03:12:07;;;;;;;4.35;2.10;;;;;;;;;;4991475;28;20092;-44
2023/08/03 03:14:35;;;;;;;6.45;2.72;;;;;;;;;;4987392;28;20046;-46
2023/08/03 03:17:00;;;;;;;4.18;1.95;;;;;;;;;;4991567;28;20062;-47
2023/08/03 03:19:26;;;;;;;6.75;2.10;;;;;;;;;;4989721;28;20039;-45
2023/08/03 03:21:51;;;;;;;4.75;2.47;;;;;;;;;;4998062;28;21258;-45
2023/08/03 03:24:16;;;;;;;3.80;1.90;;;;;;;;;;4998743;28;20113;-48
2023/08/03 03:26:42;;;;;;;4.28;2.22;;;;;;;;;;4993132;28;20040;-45
2023/08/03 03:29:07;;;;;;;5.80;2.17;;;;;;;;;;5011388;28;20038;-44
2023/08/03 03:31:33;;;;;;;5.50;1.90;;;;;;;;;;4982815;28;20030;-47
2023/08/03 03:33:58;;;;;;;5.53;2.30;;;;;;;;;;5007632;28;20065;-47
2023/08/03 03:36:23;;;;;;;3.50;1.95;;;;;;;;;;5000733;28;20043;-48
2023/08/03 03:38:49;;;;;;;3.40;2.10;;;;;;;;;;4993234;28;20051;-45
2023/08/03 03:41:14;;;;;;;5.68;2.17;;;;;;;;;;4996715;28;20033;-49
2023/08/03 03:43:40;;;;;;;6.07;2.13;;;;;;;;;;4991127;28;20031;-46
2023/08/03 03:46:05;;;;;;;8.43;2.35;;;;;;;;;;4979959;28;20027;-46
2023/08/03 03:48:30;;;;;;;6.93;2.40;;;;;;;;;;4995870;28;20491;-44
2023/08/03 03:50:56;;;;;;;9.68;2.33;;;;;;;;;;4983398;28;20109;-51
2023/08/03 03:53:21;;;;;;;5.38;2.30;;;;;;;;;;4986124;28;20038;-50
2023/08/03 03:55:47;;;;;;;8.82;2.08;;;;;;;;;;4978112;28;20026;-49
2023/08/03 03:58:12;;;;;;;6.28;2.13;;;;;;;;;;4993820;28;20393;-47
2023/08/03 04:00:40;;;;;;;9.20;2.25;;;;;;;;;;4999002;28;20338;-48
2023/08/03 04:03:09;;;;;;;4.95;2.17;;;;;;;;;;4998282;28;20034;-47
2023/08/03 04:05:36;;;;;;;6.25;2.28;;;;;;;;;;4995635;28;20030;-47
2023/08/03 04:08:02;;;;;;;8.23;3.05;;;;;;;;;;4995636;28;20040;-53
2023/08/03 04:10:28;;;;;;;6.85;2.75;;;;;;;;;;4986331;28;20037;-47
2023/08/03 04:12:54;;;;;;;8.30;2.65;;;;;;;;;;4998493;28;20492;-45
2023/08/03 04:15:19;;;;;;;6.20;2.88;;;;;;;;;;4990340;28;20026;-45
2023/08/03 04:17:45;;;;;;;8.70;2.65;;;;;;;;;;4997426;28;20042;-48
2023/08/03 04:20:12;;;;;;;7.60;2.70;;;;;;;;;;4998483;28;20027;-44
2023/08/03 04:22:37;;;;;;;5.53;2.47;;;;;;;;;;4995421;28;20026;-45
2023/08/03 04:25:03;;;;;;;7.10;2.50;;;;;;;;;;4975872;28;20046;-43
2023/08/03 04:27:29;;;;;;;8.57;2.83;;;;;;;;;;4997863;28;20474;-44
2023/08/03 04:29:54;;;;;;;7.07;2.17;;;;;;;;;;4998336;28;20062;-48
2023/08/03 04:32:20;;;;;;;9.65;2.40;;;;;;;;;;4995137;28;20026;-46
2023/08/03 04:34:45;;;;;;;5.32;2.33;;;;;;;;;;4996983;28;20030;-45
2023/08/03 04:37:11;;;;;;;7.95;3.00;;;;;;;;;;4995297;28;20062;-45
2023/08/03 04:39:36;;;;;;;5.40;2.55;;;;;;;;;;4998783;28;20034;-45
2023/08/03 04:42:01;;;;;;;7.00;2.60;;;;;;;;;;4995346;28;20022;-41
2023/08/03 04:44:27;;;;;;;8.10;2.75;;;;;;;;;;4977569;28;20031;-46
2023/08/03 04:46:52;;;;;;;8.15;2.60;;;;;;;;;;4989531;28;20034;-46
2023/08/03 04:49:18;;;;;;;8.70;2.85;;;;;;;;;;4990256;28;20052;-47
2023/08/03 04:51:43;;;;;;;6.40;2.72;;;;;;;;;;4998551;28;20026;-47
2023/08/03 04:54:09;;;;;;;7.60;2.63;;;;;;;;;;4985691;28;20488;-45
2023/08/03 04:56:34;;;;;;;12.27;2.70;;;;;;;;;;4995526;28;20034;-44
2023/08/03 04:59:00;;;;;;;9.90;2.67;;;;;;;;;;4995667;28;20082;-47
2023/08/03 05:01:25;;;;;;;7.97;2.95;;;;;;;;;;4995740;28;20053;-47
2023/08/03 05:03:52;;;;;;;8.05;2.53;;;;;;;;;;4980393;28;20069;-44
2023/08/03 05:06:17;;;;;;;7.03;2.78;;;;;;;;;;4996493;28;20058;-52
2023/08/03 05:08:43;;;;;;;9.98;2.50;;;;;;;;;;4994435;28;20031;-45
2023/08/03 05:11:08;;;;;;;13.00;3.22;;;;;;;;;;4980177;28;20454;-45
2023/08/03 05:13:33;;;;;;;10.88;2.53;;;;;;;;;;4996047;28;20061;-44
2023/08/03 05:15:59;;;;;;;8.57;2.65;;;;;;;;;;4996938;28;20053;-44
2023/08/03 05:18:24;;;;;;;9.05;2.80;;;;;;;;;;4996558;28;20034;-48
2023/08/03 05:20:50;;;;;;;6.22;2.38;;;;;;;;;;4997113;28;20457;-46
2023/08/03 05:23:15;;;;;;;6.80;2.83;;;;;;;;;;4995057;28;20408;-46
2023/08/03 05:25:41;;;;;;;6.50;2.30;;;;;;;;;;4993493;28;20446;-46
2023/08/03 05:28:06;;;;;;;9.18;2.72;;;;;;;;;;4996504;28;20093;-47
2023/08/03 05:30:32;;;;;;;7.72;2.22;;;;;;;;;;4979072;28;20030;-46
2023/08/03 05:33:00;;;;;;;7.10;2.28;;;;;;;;;;4993880;28;20073;-50
2023/08/03 05:35:25;;;;;;;7.82;2.60;;;;;;;;;;4986618;28;20061;-45
2023/08/03 05:37:52;;;;;;;11.02;2.83;;;;;;;;;;4995957;28;20540;-44
2023/08/03 05:40:18;;;;;;;11.52;2.75;;;;;;;;;;4995587;28;20026;-47
2023/08/03 05:42:43;;;;;;;6.80;2.22;;;;;;;;;;4986981;28;20090;-46
2023/08/03 05:45:12;;;;;;;8.18;2.78;;;;;;;;;;4976375;28;20037;-45
2023/08/03 05:47:40;;;;;;;6.65;2.40;;;;;;;;;;4981753;28;20073;-45
2023/08/03 05:50:13;;;;;;;7.72;2.15;;;;;;;;;;4997433;28;20037;-44
2023/08/03 05:52:39;;;;;;;9.48;2.47;;;;;;;;;;4979050;28;20054;-52
2023/08/03 05:55:04;;;;;;;8.05;2.20;;;;;;;;;;4977814;28;20035;-44
2023/08/03 05:57:30;;;;;;;8.23;2.70;;;;;;;;;;4984924;28;20424;-46
2023/08/03 05:59:55;;;;;;;4.95;1.80;;;;;;;;;;4993881;28;20031;-47
2023/08/03 06:02:33;;;;;;;12.13;2.33;;;;;;;;;;4993076;28;20054;-44
2023/08/03 06:04:59;;;;;;;8.13;2.03;;;;;;;;;;4996451;28;20065;-45
2023/08/03 06:07:25;;;;;;;7.05;2.28;;;;;;;;;;4994004;28;20101;-46
2023/08/03 06:09:51;;;;;;;10.35;2.45;;;;;;;;;;4996490;28;20026;-44
2023/08/03 06:12:18;;;;;;;4.60;1.90;;;;;;;;;;4993663;28;20082;-45
2023/08/03 06:14:43;;;;;;;10.85;2.17;;;;;;;;;;4995218;28;20036;-46
2023/08/03 06:17:10;;;;;;;8.48;2.50;;;;;;;;;;4993921;28;20480;-43
2023/08/03 06:19:36;;;;;;;10.15;2.78;;;;;;;;;;4994298;28;20072;-45
2023/08/03 06:22:13;;;;;;;7.82;2.10;;;;;;;;;;4978647;28;20042;-40
2023/08/03 06:24:38;;;;;;;12.70;2.50;;;;;;;;;;4974383;28;20870;-45
2023/08/03 06:27:04;;;;;;;8.50;2.97;;;;;;;;;;4995348;28;20090;-42
2023/08/03 06:29:29;;;;;;;8.85;2.35;;;;;;;;;;4995126;28;20034;-45
2023/08/03 06:31:55;;;;;;;8.25;2.20;;;;;;;;;;4995018;28;20069;-44
2023/08/03 06:34:20;;;;;;;8.18;2.70;;;;;;;;;;4975876;28;20112;-44
2023/08/03 06:36:46;;;;;;;4.70;1.80;;;;;;;;;;4996059;28;20050;-43
2023/08/03 06:39:11;;;;;;;4.38;1.85;;;;;;;;;;4986796;28;20046;-44
2023/08/03 06:41:36;;;;;;;7.15;1.95;;;;;;;;;;4994031;28;20034;-46
2023/08/03 06:44:02;;;;;;;11.50;2.60;;;;;;;;;;4992421;28;20114;-45
2023/08/03 06:46:28;;;;;;;6.65;2.13;;;;;;;;;;4996258;28;20141;-43
2023/08/03 06:48:53;;;;;;;7.68;2.30;;;;;;;;;;4992193;28;20378;-45
2023/08/03 06:51:20;;;;;;;5.40;2.15;;;;;;;;;;4994578;28;20555;-45
2023/08/03 06:53:46;;;;;;;7.18;2.35;;;;;;;;;;4995542;28;20046;-46
2023/08/03 06:56:12;;;;;;;7.00;2.22;;;;;;;;;;4996123;28;20032;-45
2023/08/03 06:58:38;;;;;;;9.48;2.10;;;;;;;;;;4992854;28;20121;-48
2023/08/03 07:01:03;;;;;;;8.35;2.30;;;;;;;;;;4995504;28;20034;-46
2023/08/03 07:03:29;;;;;;;6.30;2.63;;;;;;;;;;4994587;28;20026;-46
2023/08/03 07:05:55;;;;;;;6.65;2.10;;;;;;;;;;4995623;28;20086;-44
2023/08/03 07:08:20;;;;;;;4.30;1.85;;;;;;;;;;4993775;28;20470;-43
2023/08/03 07:10:46;;;;;;;8.95;2.20;;;;;;;;;;4994442;28;20126;-43
2023/08/03 07:13:11;;;;;;;7.10;2.33;;;;;;;;;;4994233;28;20039;-44
2023/08/03 07:15:36;;;;;;;6.03;2.10;;;;;;;;;;4995331;28;20080;-47
2023/08/03 07:18:06;;;;;;;6.20;1.63;;;;;;;;;;4994958;28;20050;-44
2023/08/03 07:20:33;;;;;;;3.97;2.15;;;;;;;;;;4998784;28;20156;-47
2023/08/03 07:22:59;;;;;;;9.95;2.08;;;;;;;;;;4992157;28;20039;-44
2023/08/03 07:25:24;;;;;;;5.28;1.65;;;;;;;;;;4975360;28;20094;-45
2023/08/03 07:27:51;;;;;;;5.07;1.90;;;;;;;;;;4979626;28;20536;-48
2023/08/03 07:30:17;;;;;;;11.05;1.70;;;;;;;;;;4978143;28;20030;-48
2023/08/03 07:32:42;;;;;;;6.55;1.88;;;;;;;;;;4973612;28;20042;-43
2023/08/03 07:35:08;;;;;;;7.38;1.70;;;;;;;;;;4972982;28;20561;-45
2023/08/03 07:37:33;;;;;;;4.00;1.33;;;;;;;;;;4975978;28;20039;-43
2023/08/03 07:39:59;;;;;;;4.63;1.90;;;;;;;;;;4977745;28;20091;-44
2023/08/03 07:42:24;;;;;;;5.28;1.70;;;;;;;;;;4977316;28;20457;-44
2023/08/03 07:44:53;;;;;;;4.95;1.77;;;;;;;;;;4977759;28;20130;-50
2023/08/03 07:47:19;;;;;;;9.13;1.98;;;;;;;;;;4979198;28;20030;-45
2023/08/03 07:49:45;;;;;;;5.47;1.63;;;;;;;;;;4960009;28;20031;-44
2023/08/03 07:52:10;;;;;;;6.00;1.40;;;;;;;;;;4959582;28;20500;-46
2023/08/03 07:54:36;;;;;;;5.53;1.52;;;;;;;;;;4958929;29;20594;-45
2023/08/03 07:57:01;;;;;;;5.63;1.50;;;;;;;;;;4972671;28;20568;-39
2023/08/03 07:59:26;;;;;;;2.55;1.48;;;;;;;;;;4979498;28;20042;-44
2023/08/03 08:01:52;;;;;;;5.10;2.00;;;;;;;;;;4972218;28;20123;-44
2023/08/03 08:04:18;;;;;;;5.15;1.65;;;;;;;;;;4978348;28;20043;-47
2023/08/03 08:06:45;;;;;;;5.45;1.42;;;;;;;;;;4962367;28;20038;-46
2023/08/03 08:09:10;;;;;;;4.68;1.65;;;;;;;;;;4966546;28;20035;-45
2023/08/03 08:11:36;;;;;;;6.10;1.50;;;;;;;;;;4977618;28;20062;-45
2023/08/03 08:14:01;;;;;;;4.43;1.33;;;;;;;;;;4977765;28;20039;-44
2023/08/03 08:16:27;;;;;;;7.25;2.05;;;;;;;;;;4977299;28;20472;-44
2023/08/03 08:18:52;;;;;;;6.43;1.77;;;;;;;;;;4977475;28;20038;-44
2023/08/03 08:21:18;;;;;;;4.28;1.70;;;;;;;;;;4972023;28;20035;-45
2023/08/03 08:23:43;;;;;;;4.43;1.75;;;;;;;;;;4974599;28;20039;-43
2023/08/03 08:26:14;;;;;;;3.38;1.70;;;;;;;;;;4975815;28;20109;-43
2023/08/03 08:28:44;;;;;;;6.13;1.55;;;;;;;;;;4978361;28;20038;-48
2023/08/03 08:31:09;;;;;;;5.85;2.17;;;;;;;;;;4973074;28;20023;-45
2023/08/03 08:33:36;;;;;;;6.55;1.90;;;;;;;;;;4971994;28;20518;-49
2023/08/03 08:36:01;;;;;;;6.55;1.90;;;;;;;;;;4971968;28;20132;-47
2023/08/03 08:38:27;;;;;;;8.10;2.17;;;;;;;;;;4970420;28;20039;-49
2023/08/03 08:40:53;;;;;;;5.82;1.50;;;;;;;;;;4972150;28;20026;-44
2023/08/03 08:43:19;;;;;;;7.38;1.67;;;;;;;;;;4977103;28;20041;-43
2023/08/03 08:45:44;;;;;;;4.03;1.70;;;;;;;;;;4975905;28;20553;-44
2023/08/03 08:48:10;;;;;;;6.72;2.05;;;;;;;;;;4976425;28;20042;-45
2023/08/03 08:50:36;;;;;;;6.82;2.13;;;;;;;;;;4978167;28;20496;-45
2023/08/03 08:53:01;;;;;;;5.45;2.13;;;;;;;;;;4977546;28;20406;-43
2023/08/03 08:55:30;;;;;;;7.40;2.33;;;;;;;;;;4971522;28;20039;-44
2023/08/03 08:57:58;;;;;;;7.32;1.60;;;;;;;;;;4966389;28;20061;-44
2023/08/03 09:00:25;;;;;;;9.00;1.50;;;;;;;;;;4968899;28;20058;-45
2023/08/03 09:03:00;;;;;;;9.15;1.70;;;;;;;;;;4970514;28;20074;-45
2023/08/03 09:05:27;;;;;;;4.28;1.45;;;;;;;;;;4970338;28;20034;-44
2023/08/03 09:08:16;;;;;;;12.75;1.80;;;;;;;;;;4964307;28;20035;-44
2023/08/03 09:10:53;;;;;;;5.95;1.85;;;;;;;;;;4962308;28;20479;-45
2023/08/03 09:13:35;;;;;;;5.03;1.50;;;;;;;;;;4977131;28;20501;-47
2023/08/03 09:16:01;;;;;;;5.25;1.50;;;;;;;;;;4975181;28;20027;-48
2023/08/03 09:18:29;;;;;;;2.72;1.30;;;;;;;;;;4962831;28;20035;-44
2023/08/03 09:21:14;;;;;;;8.32;1.55;;;;;;;;;;4972454;28;20034;-46
2023/08/03 09:23:40;;;;;;;5.18;1.30;;;;;;;;;;4973649;28;20176;-44
2023/08/03 09:26:06;;;;;;;3.08;1.25;;;;;;;;;;4977739;28;20070;-45
2023/08/03 09:28:36;;;;;;;4.22;1.23;;;;;;;;;;4971768;28;20514;-43
2023/08/03 09:31:03;;;;;;;2.40;1.50;;;;;;;;;;4975565;28;20034;-46
2023/08/03 09:33:29;;;;;;;2.38;1.30;;;;;;;;;;4969430;28;20047;-45
2023/08/03 09:36:13;;;;;;;5.80;1.48;;;;;;;;;;4964907;28;20043;-44
2023/08/03 09:38:40;;;;;;;5.78;1.58;;;;;;;;;;4975322;28;20047;-47
2023/08/03 09:41:05;;;;;;;8.10;1.90;;;;;;;;;;4957824;28;20035;-47
2023/08/03 09:43:31;;;;;;;4.40;1.50;;;;;;;;;;4976271;28;20093;-49
2023/08/03 09:45:58;;;;;;;3.50;1.40;;;;;;;;;;4973899;28;20041;-47
2023/08/03 09:48:25;;;;;;;2.95;1.42;;;;;;;;;;4975194;28;20039;-44
2023/08/03 09:51:02;;;;;;;3.67;1.40;;;;;;;;;;4977344;28;20039;-46
2023/08/03 09:53:36;;;;;;;7.45;1.60;;;;;;;;;;4975848;28;20069;-44
2023/08/03 09:56:03;;;;;;;4.20;1.50;;;;;;;;;;4973076;28;20031;-44
2023/08/03 09:58:39;;;;;;;7.32;1.58;;;;;;;;;;4964370;28;20083;-46
2023/08/03 10:01:07;;;;;;;4.07;1.20;;;;;;;;;;4966921;28;20166;-44
2023/08/03 10:03:34;;;;;;;5.85;1.40;;;;;;;;;;4976883;28;20037;-45
2023/08/03 10:06:10;;;;;;;2.88;1.15;;;;;;;;;;4974516;28;20035;-44
2023/08/03 10:08:48;;;;;;;4.82;1.20;;;;;;;;;;4974869;28;20054;-46
2023/08/03 10:11:14;;;;;;;8.50;1.70;;;;;;;;;;4973092;28;20179;-44
2023/08/03 10:13:46;;;;;;;2.45;1.25;;;;;;;;;;4974433;28;20031;-44
2023/08/03 10:16:16;;;;;;;3.95;1.30;;;;;;;;;;4972171;28;20366;-46
2023/08/03 10:18:42;;;;;;;10.02;1.42;;;;;;;;;;4975445;28;20039;-44
2023/08/03 10:21:09;;;;;;;2.78;1.15;;;;;;;;;;4973636;28;20023;-44
2023/08/03 10:23:38;;;;;;;4.65;1.17;;;;;;;;;;4962051;28;20768;-45
2023/08/03 10:26:04;;;;;;;1.83;1.08;;;;;;;;;;4966453;28;20035;-45
2023/08/03 10:28:38;;;;;;;3.05;1.13;;;;;;;;;;4974854;28;20443;-45
2023/08/03 10:31:07;;;;;;;4.43;1.50;;;;;;;;;;4969227;28;20038;-46
2023/08/03 10:33:50;;;;;;;4.07;1.60;;;;;;;;;;4957581;28;20047;-45
2023/08/03 10:36:30;;;;;;;4.65;1.20;;;;;;;;;;4968670;28;20518;-45
2023/08/03 10:38:58;;;;;;;5.35;1.23;;;;;;;;;;4961170;28;20094;-45
2023/08/03 10:41:36;;;;;;;4.55;0.90;;;;;;;;;;4967533;28;20058;-47
2023/08/03 10:44:13;;;;;;;1.73;0.82;;;;;;;;;;4974352;28;20408;-47
2023/08/03 10:46:40;;;;;;;3.97;1.15;;;;;;;;;;4971390;28;20067;-47
2023/08/03 10:49:40;;;;;;;5.38;1.02;;;;;;;;;;4960933;28;20727;-48
2023/08/03 10:52:24;;;;;;;3.05;0.80;;;;;;;;;;4967106;28;20062;-46
2023/08/03 10:54:51;;;;;;;6.55;1.17;;;;;;;;;;4980551;28;20058;-50
2023/08/03 10:57:19;;;;;;;4.70;1.10;;;;;;;;;;4978581;28;20026;-47
2023/08/03 10:59:48;;;;;;;1.60;0.80;;;;;;;;;;4980007;28;20122;-48
2023/08/03 11:02:14;;;;;;;9.60;1.30;;;;;;;;;;4975615;28;20027;-45
2023/08/03 11:04:40;;;;;;;5.22;0.90;;;;;;;;;;4980235;28;20038;-46
2023/08/03 11:07:10;;;;;;;3.47;1.00;;;;;;;;;;4978891;28;20035;-49
2023/08/03 11:09:36;;;;;;;3.92;1.23;;;;;;;;;;4974077;28;20039;-47
2023/08/03 11:12:06;;;;;;;3.83;1.13;;;;;;;;;;4963595;28;20500;-44
2023/08/03 11:14:32;;;;;;;3.05;0.90;;;;;;;;;;4963615;28;20062;-45
2023/08/03 11:16:58;;;;;;;5.82;1.05;;;;;;;;;;4978103;28;21179;-46
2023/08/03 11:19:23;;;;;;;2.97;1.17;;;;;;;;;;4975460;28;20054;-47
2023/08/03 11:21:49;;;;;;;2.58;1.33;;;;;;;;;;4971379;28;20027;-46
2023/08/03 11:24:15;;;;;;;1.83;1.10;;;;;;;;;;4978095;28;20130;-47
2023/08/03 11:26:41;;;;;;;4.47;0.90;;;;;;;;;;4978746;28;20035;-49
2023/08/03 11:29:07;;;;;;;4.57;1.15;;;;;;;;;;4995571;28;20063;-45
2023/08/03 11:31:33;;;;;;;1.42;1.08;;;;;;;;;;4977753;28;20043;-44
2023/08/03 11:33:58;;;;;;;2.30;1.30;;;;;;;;;;4993177;28;20049;-51
2023/08/03 11:36:24;;;;;;;2.85;1.20;;;;;;;;;;4997558;28;20595;-48
2023/08/03 11:38:51;;;;;;;4.97;1.20;;;;;;;;;;4998218;28;20046;-48
2023/08/03 11:41:20;;;;;;;3.78;1.35;;;;;;;;;;4999539;28;20034;-46
2023/08/03 11:43:49;;;;;;;6.05;1.10;;;;;;;;;;4998261;28;20062;-50
2023/08/03 11:46:15;;;;;;;1.42;1.00;;;;;;;;;;4991873;28;20042;-47
2023/08/03 11:48:45;;;;;;;2.80;1.27;;;;;;;;;;4998888;28;20042;-46
2023/08/03 11:51:10;;;;;;;5.50;1.23;;;;;;;;;;4999217;28;20113;-46
2023/08/03 11:53:40;;;;;;;2.10;0.93;;;;;;;;;;4984758;28;20520;-46
2023/08/03 11:56:07;;;;;;;2.45;1.10;;;;;;;;;;4997199;28;20057;-47
2023/08/03 11:58:34;;;;;;;4.68;1.25;;;;;;;;;;4998001;28;20081;-49
2023/08/03 12:01:02;;;;;;;7.70;1.17;;;;;;;;;;4996392;28;20038;-48
2023/08/03 12:03:35;;;;;;;2.97;1.38;;;;;;;;;;4998646;28;20066;-50
2023/08/03 12:06:08;;;;;;;3.38;1.33;;;;;;;;;;4997274;28;20036;-48
2023/08/03 12:08:44;;;;;;;1.85;1.13;;;;;;;;;;4980649;28;20494;-47
2023/08/03 12:11:11;;;;;;;1.83;1.05;;;;;;;;;;4985644;28;20026;-50
2023/08/03 12:13:36;;;;;;;2.25;1.20;;;;;;;;;;4993049;28;20451;-48
2023/08/03 12:16:02;;;;;;;2.65;1.10;;;;;;;;;;4979602;28;20022;-50
2023/08/03 12:18:28;;;;;;;4.10;1.30;;;;;;;;;;4995895;28;20038;-45
2023/08/03 12:20:53;;;;;;;2.58;1.08;;;;;;;;;;4996978;28;20128;-52
2023/08/03 12:23:20;;;;;;;3.05;1.30;;;;;;;;;;4987579;28;20194;-46
2023/08/03 12:25:46;;;;;;;3.38;1.08;;;;;;;;;;4992386;28;20022;-49
2023/08/03 12:28:12;;;;;;;1.92;1.05;;;;;;;;;;4996353;28;20064;-49
2023/08/03 12:30:38;;;;;;;7.72;1.45;;;;;;;;;;4989742;28;20065;-45
2023/08/03 12:33:06;;;;;;;4.35;1.27;;;;;;;;;;4994755;28;20523;-47
2023/08/03 12:35:32;;;;;;;2.10;1.10;;;;;;;;;;4995411;28;20050;-48
2023/08/03 12:37:57;;;;;;;2.85;1.08;;;;;;;;;;4995442;28;20072;-49
2023/08/03 12:40:23;;;;;;;3.10;1.38;;;;;;;;;;4994089;28;20069;-50
2023/08/03 12:42:48;;;;;;;6.25;1.05;;;;;;;;;;5001205;28;20174;-51
2023/08/03 12:45:13;;;;;;;2.65;1.30;;;;;;;;;;4991809;28;20424;-50
2023/08/03 12:47:39;;;;;;;3.80;1.10;;;;;;;;;;4989579;28;20058;-48
2023/08/03 12:50:05;;;;;;;1.17;0.98;;;;;;;;;;4996733;28;20026;-52
2023/08/03 12:52:31;;;;;;;1.65;1.15;;;;;;;;;;4993351;28;20117;-50
2023/08/03 12:54:56;;;;;;;2.22;1.20;;;;;;;;;;4985685;28;20058;-46
2023/08/03 12:57:22;;;;;;;4.75;1.40;;;;;;;;;;4995614;28;20042;-50
2023/08/03 12:59:47;;;;;;;3.20;1.30;;;;;;;;;;4997672;28;20113;-46
2023/08/03 13:02:13;;;;;;;2.63;1.38;;;;;;;;;;4997343;28;20065;-47
2023/08/03 13:04:38;;;;;;;4.45;1.42;;;;;;;;;;4995200;28;20046;-47
2023/08/03 13:07:04;;;;;;;4.55;1.25;;;;;;;;;;4995733;28;20065;-46
2023/08/03 13:09:29;;;;;;;1.77;1.25;;;;;;;;;;4997886;28;20034;-49
2023/08/03 13:11:56;;;;;;;3.53;1.25;;;;;;;;;;4981222;28;20112;-45
2023/08/03 13:14:22;;;;;;;2.03;0.98;;;;;;;;;;4986403;28;20062;-47
2023/08/03 13:16:47;;;;;;;2.45;1.48;;;;;;;;;;4996428;28;20088;-48
2023/08/03 13:19:13;;;;;;;3.05;1.30;;;;;;;;;;4996409;28;20138;-46
2023/08/03 13:21:39;;;;;;;5.43;1.35;;;;;;;;;;4995097;28;21588;-48
2023/08/03 13:24:04;;;;;;;4.85;1.30;;;;;;;;;;4996324;28;20034;-48
2023/08/03 13:26:30;;;;;;;2.22;1.00;;;;;;;;;;4995917;28;20089;-47
2023/08/03 13:28:55;;;;;;;3.50;1.48;;;;;;;;;;4995026;28;20049;-49
2023/08/03 13:31:21;;;;;;;2.63;1.35;;;;;;;;;;4995957;28;20034;-46
2023/08/03 13:33:46;;;;;;;2.17;1.13;;;;;;;;;;4995333;28;20058;-45
2023/08/03 13:36:12;;;;;;;2.75;1.10;;;;;;;;;;4995261;28;20038;-46
2023/08/03 13:38:37;;;;;;;2.95;1.40;;;;;;;;;;4982764;28;20145;-50
2023/08/03 13:41:04;;;;;;;2.28;1.40;;;;;;;;;;4997192;28;20416;-46
2023/08/03 13:43:29;;;;;;;3.17;1.30;;;;;;;;;;4982568;28;20037;-46
2023/08/03 13:45:55;;;;;;;3.63;1.05;;;;;;;;;;4979465;28;20030;-49
2023/08/03 13:48:20;;;;;;;1.67;1.10;;;;;;;;;;4993268;28;20479;-48
2023/08/03 13:50:47;;;;;;;2.45;1.52;;;;;;;;;;4994890;28;20041;-49
2023/08/03 13:53:12;;;;;;;3.35;1.25;;;;;;;;;;4990119;28;20066;-47
2023/08/03 13:55:38;;;;;;;1.17;1.00;;;;;;;;;;4992001;28;20042;-45
2023/08/03 13:58:03;;;;;;;4.50;1.20;;;;;;;;;;4982532;28;20133;-52
2023/08/03 14:00:30;;;;;;;5.78;1.00;;;;;;;;;;4989574;28;20034;-45
2023/08/03 14:02:56;;;;;;;0.82;0.82;;;;;;;;;;4993729;28;20042;-52
2023/08/03 14:05:22;;;;;;;3.38;1.50;;;;;;;;;;4996823;28;20026;-45
2023/08/03 14:07:48;;;;;;;2.50;0.95;;;;;;;;;;4976887;28;20047;-45
2023/08/03 14:10:13;;;;;;;3.58;1.30;;;;;;;;;;4996370;28;20026;-47
2023/08/03 14:12:39;;;;;;;2.00;1.48;;;;;;;;;;4985939;28;20097;-48
2023/08/03 14:15:05;;;;;;;5.53;1.10;;;;;;;;;;4986997;28;20121;-45
2023/08/03 14:17:30;;;;;;;3.28;1.58;;;;;;;;;;4984170;28;20117;-48
2023/08/03 14:19:57;;;;;;;4.47;1.40;;;;;;;;;;4995876;28;20036;-49
2023/08/03 14:22:23;;;;;;;5.82;1.45;;;;;;;;;;4995446;28;20084;-50
2023/08/03 14:24:48;;;;;;;3.03;1.83;;;;;;;;;;4992851;28;20022;-51
2023/08/03 14:27:14;;;;;;;2.42;1.42;;;;;;;;;;4988874;28;20031;-52
2023/08/03 14:29:39;;;;;;;5.68;1.55;;;;;;;;;;4963288;28;20043;-52
2023/08/03 14:32:07;;;;;;;4.35;1.42;;;;;;;;;;4997948;28;20029;-49
2023/08/03 14:34:34;;;;;;;5.43;1.50;;;;;;;;;;4998575;28;20022;-47
2023/08/03 14:37:02;;;;;;;1.88;1.27;;;;;;;;;;4992619;28;20154;-46
2023/08/03 14:39:27;;;;;;;2.55;1.40;;;;;;;;;;4997691;28;20046;-50